Time;durP1;ratioP1;P1;durP2;ratioP2;P2;SDS_P1;SDS_P2;PMS_P1;PMS_P2;Temp;Humidity;BMP_temperature;BMP_pressure;BME280_temperature;BME280_humidity;BME280_pressure;Samples;Min_cycle;Max_cycle;Signal;HPM_P1;HPM_P2
2021/03/26 00:01:21;;;;;;;5.93;1.65;;;13.60;99.90;;;;;;5072987;28;20110;-63
2021/03/26 00:03:51;;;;;;;9.55;2.35;;;13.50;99.90;;;;;;5073890;28;20055;-63
2021/03/26 00:06:22;;;;;;;14.75;2.83;;;13.40;99.90;;;;;;5075507;28;20062;-63
2021/03/26 00:08:49;;;;;;;12.80;2.45;;;13.40;99.90;;;;;;5076980;28;20024;-62
2021/03/26 00:11:17;;;;;;;10.68;2.08;;;13.20;99.90;;;;;;5076945;28;20036;-63
2021/03/26 00:13:44;;;;;;;10.82;1.70;;;13.20;99.90;;;;;;5077052;28;20016;-63
2021/03/26 00:16:10;;;;;;;7.93;1.63;;;13.20;99.90;;;;;;5076992;28;20108;-63
2021/03/26 00:18:39;;;;;;;7.53;1.30;;;13.10;99.90;;;;;;5078882;28;20065;-68
2021/03/26 00:21:06;;;;;;;8.63;1.80;;;12.90;99.90;;;;;;5080620;28;20132;-67
2021/03/26 00:23:33;;;;;;;13.43;1.75;;;12.80;99.90;;;;;;5078159;28;20078;-65
2021/03/26 00:26:00;;;;;;;6.72;1.60;;;12.80;99.90;;;;;;5080248;28;20693;-63
2021/03/26 00:28:27;;;;;;;14.57;2.30;;;12.60;99.90;;;;;;5066229;28;20051;-64
2021/03/26 00:30:54;;;;;;;8.52;1.50;;;12.70;99.90;;;;;;5066796;28;20040;-66
2021/03/26 00:33:21;;;;;;;8.57;1.65;;;12.60;99.90;;;;;;5084928;28;20301;-66
2021/03/26 00:35:48;;;;;;;11.05;1.35;;;12.50;99.90;;;;;;5079114;28;20035;-63
2021/03/26 00:38:15;;;;;;;14.73;1.38;;;12.50;99.90;;;;;;5057616;28;20028;-66
2021/03/26 00:40:42;;;;;;;8.18;1.50;;;12.60;99.90;;;;;;5077509;28;20054;-63
2021/03/26 00:43:09;;;;;;;9.82;1.65;;;12.50;99.90;;;;;;5069866;28;20226;-63
2021/03/26 00:45:37;;;;;;;8.55;1.92;;;12.60;99.90;;;;;;5045943;28;20055;-65
2021/03/26 00:48:06;;;;;;;14.02;1.35;;;12.80;99.90;;;;;;5043997;28;20027;-66
2021/03/26 00:50:37;;;;;;;11.23;2.03;;;12.80;99.90;;;;;;5070722;28;20040;-66
2021/03/26 00:53:07;;;;;;;5.60;1.23;;;12.70;99.90;;;;;;5061671;28;20289;-62
2021/03/26 00:55:34;;;;;;;4.72;1.58;;;12.30;99.90;;;;;;5072255;28;20079;-67
2021/03/26 00:58:01;;;;;;;13.27;2.50;;;12.20;99.90;;;;;;5066366;28;20024;-64
2021/03/26 01:00:29;;;;;;;10.98;1.50;;;12.10;99.90;;;;;;5065836;28;20052;-63
2021/03/26 01:02:59;;;;;;;15.07;1.40;;;12.10;99.90;;;;;;5072335;28;20024;-63
2021/03/26 01:05:39;;;;;;;10.18;1.52;;;12.20;99.90;;;;;;5069861;28;20503;-63
2021/03/26 01:08:06;;;;;;;12.75;2.50;;;12.20;99.90;;;;;;5069754;28;20020;-62
2021/03/26 01:10:36;;;;;;;5.28;1.40;;;12.30;99.90;;;;;;5071420;28;20032;-63
2021/03/26 01:13:03;;;;;;;11.13;1.85;;;12.40;99.90;;;;;;5073937;28;20643;-64
2021/03/26 01:15:31;;;;;;;9.02;2.05;;;12.30;99.90;;;;;;5055426;28;20059;-62
2021/03/26 01:18:03;;;;;;;7.35;1.38;;;12.20;99.90;;;;;;5075179;28;20024;-62
2021/03/26 01:20:36;;;;;;;8.75;1.63;;;11.90;99.90;;;;;;5070153;28;20562;-64
2021/03/26 01:23:06;;;;;;;7.18;1.58;;;11.90;99.90;;;;;;5072388;28;20028;-60
2021/03/26 01:25:38;;;;;;;9.88;1.30;;;11.80;99.90;;;;;;5069183;28;20032;-60
2021/03/26 01:28:07;;;;;;;5.55;1.05;;;11.80;99.90;;;;;;5071143;28;20048;-61
2021/03/26 01:30:34;;;;;;;4.20;0.67;;;11.80;99.90;;;;;;5067634;28;20122;-59
2021/03/26 01:33:02;;;;;;;7.05;1.48;;;11.80;99.90;;;;;;5070619;28;20270;-60
2021/03/26 01:35:29;;;;;;;4.60;1.38;;;11.90;99.90;;;;;;5070753;28;20034;-60
2021/03/26 01:37:58;;;;;;;8.10;1.70;;;11.80;99.90;;;;;;5070657;28;20024;-61
2021/03/26 01:40:30;;;;;;;9.35;1.50;;;11.80;99.90;;;;;;5052324;28;20024;-60
2021/03/26 01:43:06;;;;;;;11.90;1.52;;;11.80;99.90;;;;;;5069735;28;20558;-60
2021/03/26 01:45:33;;;;;;;13.10;1.58;;;11.80;99.90;;;;;;5072626;28;20028;-60
2021/03/26 01:48:00;;;;;;;23.70;2.30;;;11.80;99.90;;;;;;5072812;28;20020;-60
2021/03/26 01:50:30;;;;;;;12.02;2.42;;;11.90;99.90;;;;;;5068652;28;20617;-61
2021/03/26 01:52:57;;;;;;;8.07;1.45;;;12.00;99.90;;;;;;5052426;28;20042;-59
2021/03/26 01:55:40;;;;;;;10.23;1.60;;;12.00;99.90;;;;;;5070605;28;20030;-62
2021/03/26 01:58:09;;;;;;;7.90;1.80;;;12.00;99.90;;;;;;5054510;28;20051;-63
2021/03/26 02:00:43;;;;;;;13.23;2.20;;;11.90;99.90;;;;;;5073961;28;20066;-63
2021/03/26 02:03:32;;;;;;;11.50;1.77;;;11.90;99.90;;;;;;5060438;28;20117;-62
2021/03/26 02:06:01;;;;;;;14.50;1.95;;;11.90;99.90;;;;;;5073595;28;20027;-62
2021/03/26 02:08:35;;;;;;;15.00;2.25;;;11.90;99.90;;;;;;5074875;28;20024;-63
2021/03/26 02:11:26;;;;;;;9.43;2.17;;;11.90;99.90;;;;;;5072653;28;20082;-64
2021/03/26 02:13:55;;;;;;;12.80;2.50;;;11.80;99.90;;;;;;5054872;28;20031;-63
2021/03/26 02:16:34;;;;;;;13.88;2.38;;;11.80;99.90;;;;;;5059406;28;20047;-63
2021/03/26 02:19:08;;;;;;;10.63;1.63;;;11.80;99.90;;;;;;5055580;28;20028;-63
2021/03/26 02:21:36;;;;;;;11.13;1.48;;;11.90;99.90;;;;;;5073211;28;20184;-62
2021/03/26 02:24:06;;;;;;;11.27;2.05;;;11.90;99.90;;;;;;5040106;28;20100;-62
2021/03/26 02:26:38;;;;;;;12.75;1.67;;;11.90;99.90;;;;;;5073456;28;20028;-63
2021/03/26 02:29:23;;;;;;;13.82;2.85;;;11.90;99.90;;;;;;5052182;28;20094;-63
2021/03/26 02:32:00;;;;;;;9.07;1.40;;;12.00;99.90;;;;;;5072169;28;20040;-63
2021/03/26 02:34:27;;;;;;;10.25;1.13;;;11.90;99.90;;;;;;5055533;28;20036;-62
2021/03/26 02:37:06;;;;;;;11.60;1.45;;;11.80;99.90;;;;;;5072729;28;20050;-62
2021/03/26 02:39:46;;;;;;;6.38;1.50;;;11.80;99.90;;;;;;5071003;28;20454;-62
2021/03/26 02:42:28;;;;;;;13.70;2.45;;;11.70;99.90;;;;;;5071914;28;20120;-61
2021/03/26 02:45:19;;;;;;;5.95;0.63;;;11.70;99.90;;;;;;5072475;28;20514;-61
2021/03/26 02:47:59;;;;;;;8.02;1.00;;;11.70;99.90;;;;;;5057201;28;20035;-61
2021/03/26 02:51:05;;;;;;;6.03;1.15;;;11.70;99.90;;;;;;5072517;28;20034;-62
2021/03/26 02:54:10;;;;;;;6.82;0.95;;;11.80;99.90;;;;;;5073315;28;20035;-62
2021/03/26 02:56:50;;;;;;;5.13;1.15;;;11.80;99.90;;;;;;5057744;28;20076;-61
2021/03/26 02:59:24;;;;;;;12.45;1.48;;;11.80;99.90;;;;;;5060026;28;20565;-63
2021/03/26 03:01:53;;;;;;;8.90;1.17;;;11.90;99.90;;;;;;5069965;28;20032;-63
2021/03/26 03:04:42;;;;;;;7.05;1.17;;;11.70;99.90;;;;;;5070302;28;20088;-63
2021/03/26 03:07:22;;;;;;;7.60;0.90;;;11.70;99.90;;;;;;5056503;28;20036;-62
2021/03/26 03:09:53;;;;;;;7.03;1.58;;;11.70;99.90;;;;;;5071470;28;20095;-61
2021/03/26 03:12:36;;;;;;;11.18;1.55;;;11.70;99.90;;;;;;5069993;28;20024;-62
2021/03/26 03:15:12;;;;;;;7.97;1.27;;;11.70;99.90;;;;;;5071076;28;20035;-62
2021/03/26 03:17:50;;;;;;;8.38;1.08;;;11.70;99.90;;;;;;5068946;28;20527;-63
2021/03/26 03:20:21;;;;;;;10.97;1.03;;;11.70;99.90;;;;;;5069527;28;20044;-61
2021/03/26 03:22:54;;;;;;;8.00;1.85;;;11.60;99.90;;;;;;5071402;28;20027;-62
2021/03/26 03:25:26;;;;;;;6.18;1.00;;;11.60;99.90;;;;;;5070908;28;20086;-63
2021/03/26 03:28:26;;;;;;;3.78;0.88;;;11.60;99.90;;;;;;5067119;28;20143;-61
2021/03/26 03:31:20;;;;;;;6.95;1.35;;;11.50;99.90;;;;;;5070177;28;20054;-62
2021/03/26 03:34:13;;;;;;;7.43;1.55;;;11.50;99.90;;;;;;5072152;28;20056;-65
2021/03/26 03:37:05;;;;;;;8.18;1.67;;;11.50;99.90;;;;;;5072621;28;20033;-64
2021/03/26 03:39:53;;;;;;;5.55;0.90;;;11.50;99.90;;;;;;5045754;28;20086;-62
2021/03/26 03:42:26;;;;;;;7.07;0.90;;;11.50;99.90;;;;;;5073690;28;20051;-62
2021/03/26 03:45:22;;;;;;;6.00;1.00;;;11.50;99.90;;;;;;5074470;28;20024;-65
2021/03/26 03:48:14;;;;;;;9.73;1.63;;;11.50;99.90;;;;;;5072592;28;20155;-63
2021/03/26 03:51:18;;;;;;;7.90;1.15;;;11.60;99.90;;;;;;5069221;28;20493;-62
2021/03/26 03:54:01;;;;;;;6.70;1.40;;;11.70;99.90;;;;;;5062826;28;20047;-62
2021/03/26 03:56:39;;;;;;;9.77;1.23;;;11.70;99.90;;;;;;5056700;28;20036;-62
2021/03/26 03:59:35;;;;;;;11.80;1.48;;;11.70;99.90;;;;;;5070916;28;20130;-63
2021/03/26 04:02:09;;;;;;;8.00;1.58;;;11.80;99.90;;;;;;5052789;28;20032;-62
2021/03/26 04:05:08;;;;;;;5.75;1.10;;;11.80;99.90;;;;;;5075484;28;20854;-63
2021/03/26 04:07:42;;;;;;;10.05;1.70;;;11.80;99.90;;;;;;5074664;28;20522;-62
2021/03/26 04:10:13;;;;;;;7.53;1.02;;;11.80;99.90;;;;;;5073889;28;20059;-62
2021/03/26 04:12:44;;;;;;;7.22;1.70;;;11.90;99.90;;;;;;5055599;28;20032;-61
2021/03/26 04:15:26;;;;;;;8.93;1.65;;;11.90;99.90;;;;;;5076549;28;20020;-64
2021/03/26 04:18:14;;;;;;;11.07;1.98;;;11.90;99.90;;;;;;5076998;28;20074;-64
2021/03/26 04:21:03;;;;;;;15.65;1.95;;;11.90;99.90;;;;;;5060791;28;20040;-62
2021/03/26 04:23:40;;;;;;;11.48;2.05;;;11.80;99.90;;;;;;5060460;28;20071;-63
2021/03/26 04:26:06;;;;;;;8.80;1.20;;;11.90;99.90;;;;;;5075423;28;20046;-63
2021/03/26 04:28:38;;;;;;;8.45;1.88;;;11.90;99.90;;;;;;5073221;28;20067;-62
2021/03/26 04:31:14;;;;;;;9.27;1.65;;;11.90;99.90;;;;;;5073698;28;20040;-61
2021/03/26 04:33:40;;;;;;;11.07;1.63;;;11.90;99.90;;;;;;5072533;28;22029;-61
2021/03/26 04:36:08;;;;;;;9.50;1.63;;;12.00;99.90;;;;;;5073750;28;20042;-61
2021/03/26 04:39:05;;;;;;;9.07;1.48;;;12.00;99.90;;;;;;5074732;28;20131;-61
2021/03/26 04:41:43;;;;;;;13.23;2.10;;;11.90;99.90;;;;;;5074818;28;20138;-61
2021/03/26 04:44:33;;;;;;;10.57;1.55;;;11.90;99.90;;;;;;5072184;28;20094;-62
2021/03/26 04:47:08;;;;;;;9.07;1.45;;;12.00;99.90;;;;;;5072810;28;20032;-62
2021/03/26 04:49:44;;;;;;;10.85;1.52;;;11.90;99.90;;;;;;5072507;28;20051;-62
2021/03/26 04:52:22;;;;;;;10.63;1.73;;;11.90;99.90;;;;;;5073945;28;20803;-62
2021/03/26 04:55:12;;;;;;;11.98;1.63;;;12.00;99.90;;;;;;5073176;28;20106;-62
2021/03/26 04:57:52;;;;;;;10.90;1.17;;;12.00;99.90;;;;;;5071887;28;20071;-62
2021/03/26 05:00:47;;;;;;;10.05;1.80;;;11.90;99.90;;;;;;5067130;28;20035;-61
2021/03/26 05:03:21;;;;;;;7.00;1.73;;;12.00;99.90;;;;;;5069896;28;20031;-61
2021/03/26 05:05:53;;;;;;;11.80;2.38;;;12.00;99.90;;;;;;5070764;28;20024;-63
2021/03/26 05:08:22;;;;;;;14.70;2.17;;;11.90;99.90;;;;;;5054812;28;20053;-62
2021/03/26 05:10:51;;;;;;;6.47;1.10;;;12.00;99.90;;;;;;5071949;28;20089;-63
2021/03/26 05:13:33;;;;;;;18.67;2.10;;;12.00;99.90;;;;;;5071997;28;20150;-63
2021/03/26 05:16:15;;;;;;;14.55;1.58;;;12.10;99.90;;;;;;5072274;28;21140;-62
2021/03/26 05:18:53;;;;;;;10.20;2.15;;;12.00;99.90;;;;;;5073384;28;20077;-63
2021/03/26 05:21:37;;;;;;;10.13;1.60;;;12.10;99.90;;;;;;5072771;28;20542;-62
2021/03/26 05:24:16;;;;;;;11.32;2.83;;;12.10;99.90;;;;;;5071809;28;20535;-63
2021/03/26 05:26:43;;;;;;;10.35;1.27;;;12.00;99.90;;;;;;5074430;28;20055;-64
2021/03/26 05:29:09;;;;;;;10.52;1.08;;;12.00;99.90;;;;;;5070933;28;20155;-64
2021/03/26 05:31:54;;;;;;;7.38;1.60;;;12.10;99.90;;;;;;5073785;28;20036;-63
2021/03/26 05:34:34;;;;;;;13.18;1.23;;;12.00;99.90;;;;;;5071031;28;20027;-63
2021/03/26 05:37:29;;;;;;;10.52;1.85;;;12.00;99.90;;;;;;5070920;28;20032;-63
2021/03/26 05:40:08;;;;;;;8.60;1.27;;;12.00;99.90;;;;;;5072124;28;20083;-63
2021/03/26 05:43:09;;;;;;;8.48;2.63;;;12.00;99.90;;;;;;5070830;28;20024;-64
2021/03/26 05:46:17;;;;;;;8.18;1.65;;;11.90;99.90;;;;;;5073522;28;20048;-64
2021/03/26 05:48:57;;;;;;;15.95;1.63;;;11.80;99.90;;;;;;5061294;28;20044;-64
2021/03/26 05:51:39;;;;;;;14.95;2.60;;;11.80;99.90;;;;;;5072299;28;20624;-64
2021/03/26 05:54:28;;;;;;;6.75;1.50;;;11.70;99.90;;;;;;5054864;28;20026;-64
2021/03/26 05:57:20;;;;;;;10.75;2.10;;;11.70;99.90;;;;;;5072561;28;20032;-64
2021/03/26 06:00:15;;;;;;;12.65;3.03;;;11.60;99.90;;;;;;5072793;28;20024;-65
2021/03/26 06:03:26;;;;;;;14.52;1.92;;;11.60;99.90;;;;;;5060673;28;20067;-64
2021/03/26 06:06:26;;;;;;;10.52;2.15;;;11.60;99.90;;;;;;5018792;28;20154;-65
2021/03/26 06:09:06;;;;;;;14.43;2.55;;;11.60;99.90;;;;;;5053251;28;20107;-68
2021/03/26 06:11:57;;;;;;;20.13;2.45;;;11.70;99.90;;;;;;5053723;28;20036;-65
2021/03/26 06:14:24;;;;;;;10.57;1.67;;;11.70;99.90;;;;;;5069538;28;20073;-64
2021/03/26 06:17:17;;;;;;;9.52;1.75;;;11.70;99.90;;;;;;5072630;28;20023;-64
2021/03/26 06:20:04;;;;;;;12.80;1.85;;;11.80;99.90;;;;;;5064487;28;20047;-65
2021/03/26 06:22:33;;;;;;;10.70;1.92;;;11.80;99.90;;;;;;5071966;28;20515;-64
2021/03/26 06:25:17;;;;;;;14.02;1.95;;;11.80;99.90;;;;;;5072486;28;20585;-64
2021/03/26 06:28:28;;;;;;;17.17;2.10;;;11.80;99.90;;;;;;5069198;28;20513;-63
2021/03/26 06:31:00;;;;;;;16.95;2.03;;;11.90;99.90;;;;;;5053139;28;20039;-63
2021/03/26 06:33:50;;;;;;;8.75;2.03;;;11.90;99.90;;;;;;5070936;28;20081;-65
2021/03/26 06:36:49;;;;;;;12.38;4.10;;;12.00;99.90;;;;;;5072254;28;20033;-64
2021/03/26 06:39:52;;;;;;;7.32;1.65;;;11.90;99.90;;;;;;5073650;28;20850;-64
2021/03/26 06:42:43;;;;;;;7.65;1.70;;;11.90;99.90;;;;;;5072533;28;20024;-63
2021/03/26 06:45:31;;;;;;;11.60;1.83;;;12.00;99.90;;;;;;5075317;28;20028;-64
2021/03/26 06:48:12;;;;;;;13.18;2.42;;;11.90;99.90;;;;;;5051787;28;20028;-64
2021/03/26 06:51:12;;;;;;;10.98;2.03;;;11.70;99.90;;;;;;5073919;28;20105;-64
2021/03/26 06:54:01;;;;;;;9.25;1.80;;;11.90;99.90;;;;;;5073945;28;20376;-65
2021/03/26 06:56:30;;;;;;;;;;;11.90;99.90;;;;;;5055064;28;20559;-64
2021/03/26 06:59:33;;;;;;;8.20;1.73;;;11.90;99.90;;;;;;5066338;28;20019;-64
2021/03/26 07:02:18;;;;;;;9.25;2.42;;;11.90;99.90;;;;;;5070602;28;20027;-64
2021/03/26 07:05:13;;;;;;;10.13;2.03;;;11.90;99.90;;;;;;5070845;28;20024;-64
2021/03/26 07:08:16;;;;;;;8.82;1.70;;;12.00;99.90;;;;;;5071763;28;20185;-64
2021/03/26 07:11:08;;;;;;;7.20;1.77;;;12.00;99.90;;;;;;5070700;28;20493;-64
2021/03/26 07:14:11;;;;;;;11.15;2.17;;;12.00;99.90;;;;;;5072913;28;20067;-64
2021/03/26 07:16:41;;;;;;;14.27;2.50;;;12.00;99.90;;;;;;5073821;28;20093;-64
2021/03/26 07:19:52;;;;;;;16.58;2.35;;;12.00;99.90;;;;;;5079916;28;20016;-64
2021/03/26 07:22:36;;;;;;;24.17;2.58;;;12.00;99.90;;;;;;5079050;28;20117;-64
2021/03/26 07:25:16;;;;;;;9.35;1.58;;;12.00;99.90;;;;;;5075393;28;21742;-64
2021/03/26 07:28:02;;;;;;;12.00;2.92;;;12.00;99.90;;;;;;5076186;28;20035;-65
2021/03/26 07:30:52;;;;;;;17.05;3.25;;;12.00;99.90;;;;;;5075264;28;20055;-65
2021/03/26 07:33:33;;;;;;;12.75;1.83;;;12.00;99.90;;;;;;5065972;28;20043;-65
2021/03/26 07:36:55;;;;;;;9.50;1.67;;;12.00;99.90;;;;;;5075136;28;20028;-64
2021/03/26 07:39:50;;;;;;;10.90;2.42;;;12.00;99.90;;;;;;4992139;28;20038;-64
2021/03/26 07:42:57;;;;;;;21.27;2.97;;;11.90;99.90;;;;;;5056109;28;20036;-65
2021/03/26 07:45:45;;;;;;;15.00;2.72;;;11.80;99.90;;;;;;5073031;28;20510;-67
2021/03/26 07:48:20;;;;;;;13.35;2.75;;;11.80;99.90;;;;;;5070567;28;20028;-64
2021/03/26 07:50:58;;;;;;;17.95;2.78;;;11.70;99.90;;;;;;5076305;28;20967;-64
2021/03/26 07:53:52;;;;;;;21.63;2.63;;;11.70;99.90;;;;;;5077310;28;20081;-64
2021/03/26 07:56:38;;;;;;;19.00;2.85;;;11.70;99.90;;;;;;5077452;28;20655;-67
2021/03/26 07:59:35;;;;;;;19.58;3.55;;;11.80;99.90;;;;;;5078829;28;20019;-65
2021/03/26 08:02:36;;;;;;;13.00;2.92;;;11.70;99.90;;;;;;5077669;28;20036;-64
2021/03/26 08:05:21;;;;;;;14.32;2.97;;;11.70;99.90;;;;;;5077177;28;20028;-65
2021/03/26 08:08:27;;;;;;;17.67;2.33;;;11.70;99.90;;;;;;5060472;28;20024;-64
2021/03/26 08:11:20;;;;;;;16.42;2.75;;;11.80;99.90;;;;;;5073592;28;20075;-64
2021/03/26 08:14:03;;;;;;;19.98;3.25;;;11.80;99.90;;;;;;5054381;28;20028;-64
2021/03/26 08:16:48;;;;;;;11.70;2.60;;;11.90;99.90;;;;;;5061720;28;20861;-65
2021/03/26 08:19:40;;;;;;;12.98;2.67;;;11.90;99.90;;;;;;5075397;28;20063;-64
2021/03/26 08:22:30;;;;;;;16.67;3.67;;;11.90;99.90;;;;;;5075708;28;20039;-65
2021/03/26 08:25:30;;;;;;;9.18;2.25;;;11.90;99.90;;;;;;5065086;28;20151;-65
2021/03/26 08:28:28;;;;;;;18.67;2.92;;;11.90;99.90;;;;;;5080528;28;20044;-66
2021/03/26 08:31:16;;;;;;;18.52;3.30;;;11.90;99.90;;;;;;5080360;28;20028;-64
2021/03/26 08:34:12;;;;;;;9.02;2.70;;;11.90;99.90;;;;;;5075582;28;20028;-65
2021/03/26 08:37:27;;;;;;;18.90;3.63;;;11.80;99.90;;;;;;5078752;28;20038;-65
2021/03/26 08:40:06;;;;;;;20.65;3.90;;;11.80;99.90;;;;;;5057036;28;20051;-65
2021/03/26 08:42:40;;;;;;;;;;;11.70;99.90;;;;;;5066470;28;20028;-64
2021/03/26 08:45:12;;;;;;;17.40;4.07;;;11.70;99.90;;;;;;5082168;28;20288;-68
2021/03/26 08:48:01;;;;;;;22.17;5.43;;;11.60;99.90;;;;;;5064354;28;20028;-68
2021/03/26 08:51:01;;;;;;;24.55;3.70;;;11.50;99.90;;;;;;5082775;28;20032;-65
2021/03/26 08:53:31;;;;;;;21.67;3.97;;;11.50;99.90;;;;;;5068138;28;20034;-64
2021/03/26 08:56:21;;;;;;;17.33;3.78;;;11.50;99.90;;;;;;5077845;28;20099;-65
2021/03/26 08:59:11;;;;;;;17.60;4.10;;;11.50;99.90;;;;;;5080824;28;20043;-66
2021/03/26 09:02:01;;;;;;;20.85;2.40;;;11.50;99.90;;;;;;5070079;28;20043;-66
2021/03/26 09:04:56;;;;;;;13.73;3.05;;;11.50;99.90;;;;;;5066938;28;20028;-64
2021/03/26 09:08:00;;;;;;;15.25;3.53;;;11.50;99.90;;;;;;5068305;28;20032;-64
2021/03/26 09:11:03;;;;;;;26.08;3.35;;;11.50;99.90;;;;;;5080739;28;20035;-65
2021/03/26 09:13:47;;;;;;;15.88;2.65;;;11.50;99.90;;;;;;5077754;28;20553;-64
2021/03/26 09:16:37;;;;;;;22.20;4.05;;;11.50;99.90;;;;;;5076853;28;20028;-65
2021/03/26 09:19:27;;;;;;;23.38;3.25;;;11.50;99.90;;;;;;5042227;28;20085;-63
2021/03/26 09:22:31;;;;;;;8.65;3.00;;;11.50;99.90;;;;;;5073188;28;20468;-63
2021/03/26 09:25:19;;;;;;;16.63;2.75;;;11.60;99.90;;;;;;5071128;28;20147;-63
2021/03/26 09:27:53;;;;;;;15.45;2.40;;;11.60;99.90;;;;;;5077270;28;20024;-63
2021/03/26 09:30:25;;;;;;;14.90;3.13;;;11.60;99.90;;;;;;5077838;28;20040;-64
2021/03/26 09:32:55;;;;;;;17.73;3.28;;;11.70;99.90;;;;;;5073179;28;20085;-63
2021/03/26 09:35:39;;;;;;;24.17;2.47;;;11.80;99.90;;;;;;5076345;28;20044;-64
2021/03/26 09:38:17;;;;;;;13.98;2.80;;;11.70;99.90;;;;;;5062880;28;20127;-63
2021/03/26 09:41:00;;;;;;;11.20;2.00;;;11.80;99.90;;;;;;5058191;28;20125;-66
2021/03/26 09:43:49;;;;;;;18.48;3.65;;;11.70;99.90;;;;;;5076467;28;20035;-65
2021/03/26 09:46:47;;;;;;;12.70;2.83;;;11.70;99.90;;;;;;5065964;28;20259;-65
2021/03/26 09:49:23;;;;;;;17.15;3.28;;;11.60;99.90;;;;;;5077426;28;20050;-65
2021/03/26 09:52:00;;;;;;;26.45;3.58;;;11.60;99.90;;;;;;5074311;28;20055;-65
2021/03/26 09:54:49;;;;;;;20.08;3.08;;;11.40;99.90;;;;;;5080843;28;20105;-67
2021/03/26 09:57:45;;;;;;;13.10;2.70;;;11.40;99.90;;;;;;5059338;28;20062;-64
2021/03/26 10:00:37;;;;;;;25.30;4.10;;;11.40;99.90;;;;;;5057851;28;20611;-64
2021/03/26 10:03:28;;;;;;;14.77;2.38;;;11.40;99.90;;;;;;5063251;28;20126;-65
2021/03/26 10:06:04;;;;;;;10.98;2.92;;;11.40;99.90;;;;;;5058017;28;20033;-63
2021/03/26 10:09:03;;;;;;;12.02;3.00;;;11.40;99.90;;;;;;5071870;28;20043;-65
2021/03/26 10:12:00;;;;;;;14.65;2.50;;;11.30;99.90;;;;;;5073846;28;20039;-63
2021/03/26 10:14:42;;;;;;;10.55;2.13;;;11.40;99.90;;;;;;5058847;28;20036;-63
2021/03/26 10:17:12;;;;;;;21.67;2.72;;;11.40;99.90;;;;;;5058244;28;20086;-62
2021/03/26 10:20:03;;;;;;;13.50;2.92;;;11.40;99.90;;;;;;5056816;28;20132;-63
2021/03/26 10:23:05;;;;;;;14.70;3.92;;;11.40;99.90;;;;;;5070715;28;20059;-66
2021/03/26 10:25:59;;;;;;;16.10;3.40;;;11.40;99.90;;;;;;5071667;28;20111;-63
2021/03/26 10:28:33;;;;;;;16.77;3.03;;;11.30;99.90;;;;;;5070978;28;20064;-64
2021/03/26 10:31:11;;;;;;;13.63;2.85;;;11.30;99.90;;;;;;5057835;28;20035;-65
2021/03/26 10:33:57;;;;;;;23.38;2.97;;;11.30;99.90;;;;;;5059371;28;20052;-67
2021/03/26 10:36:33;;;;;;;16.42;3.25;;;11.20;99.90;;;;;;5057652;28;20032;-63
2021/03/26 10:39:05;;;;;;;23.23;4.00;;;11.30;99.90;;;;;;5070680;28;20020;-63
2021/03/26 10:42:02;;;;;;;17.10;3.50;;;11.20;99.90;;;;;;5075105;28;20457;-64
2021/03/26 10:44:39;;;;;;;13.13;2.38;;;11.30;99.90;;;;;;5073514;28;20040;-63
2021/03/26 10:47:14;;;;;;;18.33;3.45;;;11.30;99.90;;;;;;5070996;28;20880;-65
2021/03/26 10:49:46;;;;;;;17.77;2.50;;;11.30;99.90;;;;;;5070938;28;20547;-65
2021/03/26 10:52:16;;;;;;;15.20;2.75;;;11.30;99.90;;;;;;5055094;28;20063;-65
2021/03/26 10:54:58;;;;;;;15.30;2.40;;;11.30;99.90;;;;;;5077251;28;20024;-64
2021/03/26 10:57:48;;;;;;;6.43;1.58;;;11.30;99.90;;;;;;5060433;28;20119;-65
2021/03/26 11:00:29;;;;;;;7.45;2.13;;;11.40;99.90;;;;;;5058969;28;20039;-66
2021/03/26 11:03:02;;;;;;;9.30;2.00;;;11.40;99.90;;;;;;5058162;28;20044;-64
2021/03/26 11:05:38;;;;;;;19.63;4.00;;;11.30;99.90;;;;;;5055739;28;20059;-64
2021/03/26 11:08:36;;;;;;;13.63;2.78;;;11.30;99.90;;;;;;5073789;28;20064;-64
2021/03/26 11:11:09;;;;;;;15.63;2.45;;;11.30;99.90;;;;;;5056277;28;20058;-64
2021/03/26 11:13:44;;;;;;;12.18;2.35;;;11.40;99.90;;;;;;5073083;28;22006;-64
2021/03/26 11:16:43;;;;;;;14.98;2.15;;;11.30;99.90;;;;;;5076976;28;20032;-65
2021/03/26 11:19:19;;;;;;;25.20;2.67;;;11.20;99.90;;;;;;5072445;28;20044;-64
2021/03/26 11:21:50;;;;;;;14.57;2.95;;;11.40;99.90;;;;;;5074906;28;20119;-65
2021/03/26 11:24:17;;;;;;;13.18;2.65;;;11.40;99.90;;;;;;5070559;28;20024;-64
2021/03/26 11:27:04;;;;;;;13.55;3.78;;;11.40;99.90;;;;;;5069861;28;20024;-65
2021/03/26 11:29:43;;;;;;;12.63;2.10;;;11.40;99.90;;;;;;5070256;28;20059;-65
2021/03/26 11:32:24;;;;;;;15.98;2.20;;;11.50;99.90;;;;;;5075481;28;20095;-64
2021/03/26 11:35:15;;;;;;;11.85;1.80;;;11.40;99.90;;;;;;5057806;28;20035;-65
2021/03/26 11:37:55;;;;;;;9.85;1.98;;;11.40;99.90;;;;;;5059662;28;20031;-66
2021/03/26 11:40:33;;;;;;;13.75;2.25;;;11.50;99.90;;;;;;5058808;28;20666;-66
2021/03/26 11:43:30;;;;;;;12.52;2.60;;;11.40;99.90;;;;;;5075491;28;20031;-66
2021/03/26 11:46:17;;;;;;;9.07;1.67;;;11.40;99.90;;;;;;5076787;28;20027;-63
2021/03/26 11:48:49;;;;;;;12.80;1.70;;;11.40;99.90;;;;;;5078702;28;20036;-65
2021/03/26 11:51:24;;;;;;;8.50;2.10;;;11.40;99.90;;;;;;5058925;28;20800;-63
2021/03/26 11:53:59;;;;;;;11.68;3.08;;;11.40;99.90;;;;;;5071925;28;20024;-64
2021/03/26 11:56:37;;;;;;;15.98;2.40;;;11.40;99.90;;;;;;5054787;28;20376;-64
2021/03/26 11:59:19;;;;;;;9.00;1.88;;;11.40;99.90;;;;;;5072579;28;20028;-66
2021/03/26 12:02:30;;;;;;;9.95;1.80;;;11.50;99.90;;;;;;5073788;28;20576;-65
2021/03/26 12:05:27;;;;;;;12.60;2.35;;;11.50;99.90;;;;;;5021844;28;20040;-64
2021/03/26 12:08:03;;;;;;;20.83;3.42;;;11.60;99.90;;;;;;5076670;28;20077;-64
2021/03/26 12:10:45;;;;;;;18.33;2.67;;;11.50;99.90;;;;;;5080314;28;20032;-65
2021/03/26 12:13:24;;;;;;;10.38;1.63;;;11.50;99.90;;;;;;5062415;28;20035;-66
2021/03/26 12:16:16;;;;;;;14.70;3.30;;;11.40;99.90;;;;;;5063493;28;20034;-64
2021/03/26 12:18:51;;;;;;;20.88;2.85;;;11.20;99.90;;;;;;5076113;28;20036;-64
2021/03/26 12:21:29;;;;;;;18.85;3.55;;;11.10;99.90;;;;;;5077555;28;20020;-64
2021/03/26 12:24:23;;;;;;;11.65;3.28;;;11.10;99.90;;;;;;5061864;28;20036;-68
2021/03/26 12:27:10;;;;;;;14.48;2.70;;;11.10;99.90;;;;;;5056290;28;20051;-64
2021/03/26 12:29:51;;;;;;;18.88;2.92;;;11.00;99.90;;;;;;5060773;28;20044;-64
2021/03/26 12:32:33;;;;;;;16.33;2.78;;;11.00;99.90;;;;;;5059805;28;20025;-64
2021/03/26 12:35:20;;;;;;;7.95;2.28;;;10.90;99.90;;;;;;5074154;28;20024;-65
2021/03/26 12:38:10;;;;;;;12.30;2.17;;;10.90;99.90;;;;;;5077792;28;20079;-65
2021/03/26 12:40:42;;;;;;;17.48;2.92;;;10.90;99.90;;;;;;5050562;28;20039;-64
2021/03/26 12:43:30;;;;;;;9.13;1.90;;;10.90;99.90;;;;;;5074144;28;20079;-64
2021/03/26 12:46:08;;;;;;;14.05;2.78;;;10.90;99.90;;;;;;5057706;28;20028;-64
2021/03/26 12:48:43;;;;;;;14.85;2.75;;;11.00;99.90;;;;;;5074438;28;20035;-64
2021/03/26 12:51:21;;;;;;;14.65;2.17;;;10.80;99.90;;;;;;5073427;28;20118;-63
2021/03/26 12:53:57;;;;;;;14.90;3.88;;;10.70;99.90;;;;;;5077011;28;20038;-62
2021/03/26 12:56:35;;;;;;;15.57;3.00;;;10.70;99.90;;;;;;5071208;28;20031;-63
2021/03/26 12:59:10;;;;;;;14.90;2.63;;;10.90;99.90;;;;;;5074208;28;20089;-63
2021/03/26 13:01:53;;;;;;;14.32;2.38;;;10.90;99.90;;;;;;5072946;28;20032;-63
2021/03/26 13:04:38;;;;;;;7.82;1.83;;;10.90;99.90;;;;;;5076026;28;20069;-63
2021/03/26 13:07:28;;;;;;;12.55;1.90;;;10.90;99.90;;;;;;5073934;28;20028;-63
2021/03/26 13:10:39;;;;;;;15.23;2.13;;;10.90;99.90;;;;;;5072822;28;20016;-63
2021/03/26 13:13:20;;;;;;;17.77;2.70;;;11.00;99.90;;;;;;5075899;28;20036;-64
2021/03/26 13:16:06;;;;;;;14.48;2.50;;;10.90;99.90;;;;;;5057568;28;20039;-64
2021/03/26 13:18:33;;;;;;;7.97;1.77;;;11.00;99.90;;;;;;5056680;28;20073;-63
2021/03/26 13:21:05;;;;;;;11.82;2.47;;;11.00;99.90;;;;;;5074871;28;20032;-63
2021/03/26 13:23:37;;;;;;;11.25;2.63;;;10.90;99.90;;;;;;5074783;28;20073;-62
2021/03/26 13:26:15;;;;;;;14.63;2.78;;;10.90;99.90;;;;;;5072262;28;20056;-64
2021/03/26 13:28:59;;;;;;;12.02;2.30;;;11.00;99.90;;;;;;5075935;28;20089;-64
2021/03/26 13:31:39;;;;;;;19.05;2.20;;;11.00;99.90;;;;;;5076856;28;20032;-64
2021/03/26 13:34:21;;;;;;;10.90;1.80;;;11.00;99.90;;;;;;5077307;28;20081;-64
2021/03/26 13:37:22;;;;;;;14.40;2.28;;;11.00;99.90;;;;;;5061078;28;20029;-64
2021/03/26 13:40:18;;;;;;;18.58;2.28;;;11.10;99.90;;;;;;5074271;28;20028;-63
2021/03/26 13:42:52;;;;;;;14.15;1.92;;;11.00;99.90;;;;;;5073658;28;20040;-63
2021/03/26 13:45:26;;;;;;;18.00;3.53;;;11.00;99.90;;;;;;5078310;28;20442;-64
2021/03/26 13:48:01;;;;;;;14.77;3.35;;;10.90;99.90;;;;;;5059411;28;20028;-64
2021/03/26 13:50:36;;;;;;;13.50;2.63;;;10.90;99.90;;;;;;5079037;28;20032;-63
2021/03/26 13:53:33;;;;;;;15.60;2.20;;;11.00;99.90;;;;;;5078232;28;20046;-64
2021/03/26 13:56:12;;;;;;;10.77;2.30;;;11.10;99.90;;;;;;5075841;28;20027;-65